sensor_id;sensor_type;location;lat;lon;timestamp;pressure;altitude;pressure_sealevel;temperature;humidity
74466;BME280;62916;50.044;15.938;2022-10-16T00:02:03;99104.84;;;24.93;47.49
74466;BME280;62916;50.044;15.938;2022-10-16T00:04:34;99102.79;;;24.91;47.46
74466;BME280;62916;50.044;15.938;2022-10-16T00:07:05;99106.42;;;24.89;47.59
74466;BME280;62916;50.044;15.938;2022-10-16T00:09:36;99103.80;;;24.88;47.64
74466;BME280;62916;50.044;15.938;2022-10-16T00:12:06;99105.61;;;24.87;47.60
74466;BME280;62916;50.044;15.938;2022-10-16T00:14:37;99108.82;;;24.86;47.74
74466;BME280;62916;50.044;15.938;2022-10-16T00:17:10;99108.16;;;24.85;47.72
74466;BME280;62916;50.044;15.938;2022-10-16T00:19:41;99106.34;;;24.84;47.86
74466;BME280;62916;50.044;15.938;2022-10-16T00:22:11;99105.63;;;24.85;47.75
74466;BME280;62916;50.044;15.938;2022-10-16T00:24:42;99097.83;;;24.84;47.65
74466;BME280;62916;50.044;15.938;2022-10-16T00:27:13;99096.67;;;24.84;47.93
74466;BME280;62916;50.044;15.938;2022-10-16T00:29:44;99097.02;;;24.82;47.83
74466;BME280;62916;50.044;15.938;2022-10-16T00:32:15;99093.20;;;24.81;47.67
74466;BME280;62916;50.044;15.938;2022-10-16T00:34:45;99092.70;;;24.81;47.65
74466;BME280;62916;50.044;15.938;2022-10-16T00:37:16;99093.95;;;24.80;47.77
74466;BME280;62916;50.044;15.938;2022-10-16T00:39:47;99094.85;;;24.78;47.87
74466;BME280;62916;50.044;15.938;2022-10-16T00:42:19;99102.34;;;24.77;47.89
74466;BME280;62916;50.044;15.938;2022-10-16T00:44:51;99112.15;;;24.77;47.96
74466;BME280;62916;50.044;15.938;2022-10-16T00:47:26;99113.09;;;24.76;47.92
74466;BME280;62916;50.044;15.938;2022-10-16T00:50:02;99107.82;;;24.76;47.95
74466;BME280;62916;50.044;15.938;2022-10-16T00:52:36;99111.63;;;24.76;48.13
74466;BME280;62916;50.044;15.938;2022-10-16T00:55:09;99115.63;;;24.77;47.90
74466;BME280;62916;50.044;15.938;2022-10-16T00:57:40;99111.66;;;24.75;48.11
74466;BME280;62916;50.044;15.938;2022-10-16T01:00:17;99114.86;;;24.74;48.15
74466;BME280;62916;50.044;15.938;2022-10-16T01:02:54;99119.25;;;24.74;48.17
74466;BME280;62916;50.044;15.938;2022-10-16T01:05:33;99120.39;;;24.78;48.10
74466;BME280;62916;50.044;15.938;2022-10-16T01:08:11;99122.44;;;24.81;48.17
74466;BME280;62916;50.044;15.938;2022-10-16T01:10:51;99122.00;;;24.82;48.07
74466;BME280;62916;50.044;15.938;2022-10-16T01:13:27;99118.89;;;24.84;48.19
74466;BME280;62916;50.044;15.938;2022-10-16T01:16:03;99123.66;;;24.88;47.91
74466;BME280;62916;50.044;15.938;2022-10-16T01:18:39;99127.58;;;24.91;48.02
74466;BME280;62916;50.044;15.938;2022-10-16T01:21:15;99133.89;;;24.90;47.78
74466;BME280;62916;50.044;15.938;2022-10-16T01:23:55;99136.96;;;24.90;47.86
74466;BME280;62916;50.044;15.938;2022-10-16T01:26:37;99145.34;;;24.91;47.82
74466;BME280;62916;50.044;15.938;2022-10-16T01:29:16;99152.48;;;24.91;47.88
74466;BME280;62916;50.044;15.938;2022-10-16T01:31:53;99154.84;;;24.93;47.77
74466;BME280;62916;50.044;15.938;2022-10-16T01:34:31;99160.62;;;24.92;47.83
74466;BME280;62916;50.044;15.938;2022-10-16T01:37:07;99172.11;;;24.91;47.80
74466;BME280;62916;50.044;15.938;2022-10-16T01:39:42;99170.28;;;24.88;47.86
74466;BME280;62916;50.044;15.938;2022-10-16T01:42:18;99161.24;;;24.85;47.84
74466;BME280;62916;50.044;15.938;2022-10-16T01:44:52;99153.89;;;24.81;48.09
74466;BME280;62916;50.044;15.938;2022-10-16T01:47:26;99150.58;;;24.79;48.01
74466;BME280;62916;50.044;15.938;2022-10-16T01:49:59;99152.29;;;24.78;48.19
74466;BME280;62916;50.044;15.938;2022-10-16T01:52:31;99151.30;;;24.77;48.21
74466;BME280;62916;50.044;15.938;2022-10-16T01:55:04;99154.70;;;24.77;48.20
74466;BME280;62916;50.044;15.938;2022-10-16T01:57:38;99148.93;;;24.77;48.16
74466;BME280;62916;50.044;15.938;2022-10-16T02:00:13;99153.74;;;24.76;48.21
74466;BME280;62916;50.044;15.938;2022-10-16T02:02:47;99152.25;;;24.75;48.14
74466;BME280;62916;50.044;15.938;2022-10-16T02:05:23;99155.63;;;24.74;48.09
74466;BME280;62916;50.044;15.938;2022-10-16T02:07:55;99159.67;;;24.74;48.14
74466;BME280;62916;50.044;15.938;2022-10-16T02:10:31;99165.02;;;24.74;48.02
74466;BME280;62916;50.044;15.938;2022-10-16T02:13:06;99169.63;;;24.73;48.06
74466;BME280;62916;50.044;15.938;2022-10-16T02:15:39;99167.88;;;24.72;48.10
74466;BME280;62916;50.044;15.938;2022-10-16T02:18:10;99167.75;;;24.71;48.10
74466;BME280;62916;50.044;15.938;2022-10-16T02:20:46;99169.50;;;24.68;48.26
74466;BME280;62916;50.044;15.938;2022-10-16T02:23:22;99174.81;;;24.67;48.29
74466;BME280;62916;50.044;15.938;2022-10-16T02:25:55;99180.86;;;24.66;48.23
74466;BME280;62916;50.044;15.938;2022-10-16T02:28:34;99187.98;;;24.64;48.29
74466;BME280;62916;50.044;15.938;2022-10-16T02:31:11;99194.98;;;24.62;48.28
74466;BME280;62916;50.044;15.938;2022-10-16T02:33:44;99187.41;;;24.62;48.35
74466;BME280;62916;50.044;15.938;2022-10-16T02:36:16;99181.09;;;24.61;48.35
74466;BME280;62916;50.044;15.938;2022-10-16T02:38:48;99179.38;;;24.61;48.35
74466;BME280;62916;50.044;15.938;2022-10-16T02:41:21;99173.02;;;24.60;48.34
74466;BME280;62916;50.044;15.938;2022-10-16T02:43:54;99168.05;;;24.59;48.46
74466;BME280;62916;50.044;15.938;2022-10-16T02:46:25;99172.73;;;24.59;48.40
74466;BME280;62916;50.044;15.938;2022-10-16T02:48:55;99179.56;;;24.57;48.45
74466;BME280;62916;50.044;15.938;2022-10-16T02:51:26;99181.80;;;24.57;48.49
74466;BME280;62916;50.044;15.938;2022-10-16T02:53:57;99181.84;;;24.56;48.48
74466;BME280;62916;50.044;15.938;2022-10-16T02:56:28;99179.61;;;24.55;48.63
74466;BME280;62916;50.044;15.938;2022-10-16T02:58:59;99176.33;;;24.53;48.44
74466;BME280;62916;50.044;15.938;2022-10-16T03:01:29;99179.48;;;24.54;48.63
74466;BME280;62916;50.044;15.938;2022-10-16T03:04:01;99185.90;;;24.54;48.53
74466;BME280;62916;50.044;15.938;2022-10-16T03:06:31;99190.80;;;24.53;48.40
74466;BME280;62916;50.044;15.938;2022-10-16T03:09:02;99193.12;;;24.52;48.52
74466;BME280;62916;50.044;15.938;2022-10-16T03:11:33;99190.64;;;24.50;48.41
74466;BME280;62916;50.044;15.938;2022-10-16T03:14:03;99188.39;;;24.51;48.51
74466;BME280;62916;50.044;15.938;2022-10-16T03:16:34;99184.75;;;24.51;48.51
74466;BME280;62916;50.044;15.938;2022-10-16T03:19:05;99177.34;;;24.50;48.67
74466;BME280;62916;50.044;15.938;2022-10-16T03:21:36;99176.67;;;24.49;48.71
74466;BME280;62916;50.044;15.938;2022-10-16T03:24:07;99181.40;;;24.50;48.76
74466;BME280;62916;50.044;15.938;2022-10-16T03:26:38;99183.10;;;24.49;48.68
74466;BME280;62916;50.044;15.938;2022-10-16T03:29:09;99185.27;;;24.48;48.71
74466;BME280;62916;50.044;15.938;2022-10-16T03:31:40;99182.48;;;24.47;48.68
74466;BME280;62916;50.044;15.938;2022-10-16T03:34:10;99182.44;;;24.48;48.68
74466;BME280;62916;50.044;15.938;2022-10-16T03:36:41;99179.70;;;24.50;48.76
74466;BME280;62916;50.044;15.938;2022-10-16T03:39:12;99185.40;;;24.49;48.45
74466;BME280;62916;50.044;15.938;2022-10-16T03:41:43;99188.55;;;24.49;48.55
74466;BME280;62916;50.044;15.938;2022-10-16T03:44:15;99184.02;;;24.49;48.56
74466;BME280;62916;50.044;15.938;2022-10-16T03:46:46;99179.81;;;24.47;48.69
74466;BME280;62916;50.044;15.938;2022-10-16T03:49:17;99183.79;;;24.46;48.58
74466;BME280;62916;50.044;15.938;2022-10-16T03:51:48;99187.16;;;24.45;48.55
74466;BME280;62916;50.044;15.938;2022-10-16T03:54:19;99180.92;;;24.42;48.63
74466;BME280;62916;50.044;15.938;2022-10-16T03:56:51;99180.02;;;24.42;48.78
74466;BME280;62916;50.044;15.938;2022-10-16T03:59:22;99186.11;;;24.43;48.79
74466;BME280;62916;50.044;15.938;2022-10-16T04:01:52;99186.66;;;24.42;48.68
74466;BME280;62916;50.044;15.938;2022-10-16T04:04:23;99185.01;;;24.41;48.82
74466;BME280;62916;50.044;15.938;2022-10-16T04:06:54;99191.17;;;24.41;48.72
74466;BME280;62916;50.044;15.938;2022-10-16T04:09:25;99188.64;;;24.41;48.82
74466;BME280;62916;50.044;15.938;2022-10-16T04:11:56;99197.29;;;24.40;48.82
74466;BME280;62916;50.044;15.938;2022-10-16T04:14:27;99203.36;;;24.39;48.77
74466;BME280;62916;50.044;15.938;2022-10-16T04:16:58;99206.88;;;24.37;48.78
74466;BME280;62916;50.044;15.938;2022-10-16T04:19:29;99205.98;;;24.35;48.85
74466;BME280;62916;50.044;15.938;2022-10-16T04:21:59;99207.63;;;24.34;48.74
74466;BME280;62916;50.044;15.938;2022-10-16T04:24:30;99212.91;;;24.33;48.87
74466;BME280;62916;50.044;15.938;2022-10-16T04:27:00;99218.71;;;24.32;48.72
74466;BME280;62916;50.044;15.938;2022-10-16T04:29:31;99221.13;;;24.31;48.77
74466;BME280;62916;50.044;15.938;2022-10-16T04:32:02;99224.86;;;24.31;48.78
74466;BME280;62916;50.044;15.938;2022-10-16T04:34:33;99224.24;;;24.30;48.96
74466;BME280;62916;50.044;15.938;2022-10-16T04:37:04;99223.77;;;24.29;48.79
74466;BME280;62916;50.044;15.938;2022-10-16T04:39:34;99221.55;;;24.28;48.86
74466;BME280;62916;50.044;15.938;2022-10-16T04:42:05;99218.88;;;24.28;48.79
74466;BME280;62916;50.044;15.938;2022-10-16T04:44:36;99221.50;;;24.29;48.92
74466;BME280;62916;50.044;15.938;2022-10-16T04:47:06;99226.95;;;24.29;48.80
74466;BME280;62916;50.044;15.938;2022-10-16T04:49:37;99231.55;;;24.29;48.82
74466;BME280;62916;50.044;15.938;2022-10-16T04:52:08;99234.88;;;24.29;48.89
74466;BME280;62916;50.044;15.938;2022-10-16T04:54:39;99245.55;;;24.30;48.83
74466;BME280;62916;50.044;15.938;2022-10-16T04:57:09;99246.14;;;24.31;48.81
74466;BME280;62916;50.044;15.938;2022-10-16T04:59:40;99238.41;;;24.28;48.78
74466;BME280;62916;50.044;15.938;2022-10-16T05:02:11;99242.48;;;24.31;48.81
74466;BME280;62916;50.044;15.938;2022-10-16T05:04:41;99246.18;;;24.30;48.87
74466;BME280;62916;50.044;15.938;2022-10-16T05:07:12;99250.38;;;24.31;48.90
74466;BME280;62916;50.044;15.938;2022-10-16T05:09:43;99244.81;;;24.33;48.88
74466;BME280;62916;50.044;15.938;2022-10-16T05:12:14;99234.76;;;24.32;48.82
74466;BME280;62916;50.044;15.938;2022-10-16T05:14:44;99224.75;;;24.31;48.80
74466;BME280;62916;50.044;15.938;2022-10-16T05:17:15;99230.91;;;24.31;48.85
74466;BME280;62916;50.044;15.938;2022-10-16T05:19:46;99233.85;;;24.29;48.84
74466;BME280;62916;50.044;15.938;2022-10-16T05:22:16;99233.88;;;24.28;48.88
74466;BME280;62916;50.044;15.938;2022-10-16T05:24:47;99236.42;;;24.27;48.88
74466;BME280;62916;50.044;15.938;2022-10-16T05:27:18;99239.59;;;24.26;48.87
74466;BME280;62916;50.044;15.938;2022-10-16T05:29:49;99242.39;;;24.25;49.02
74466;BME280;62916;50.044;15.938;2022-10-16T05:32:20;99251.89;;;24.26;48.94
74466;BME280;62916;50.044;15.938;2022-10-16T05:34:52;99255.17;;;24.24;48.97
74466;BME280;62916;50.044;15.938;2022-10-16T05:37:22;99259.04;;;24.24;48.92
74466;BME280;62916;50.044;15.938;2022-10-16T05:39:53;99261.00;;;24.24;48.94
74466;BME280;62916;50.044;15.938;2022-10-16T05:42:24;99260.71;;;24.23;48.94
74466;BME280;62916;50.044;15.938;2022-10-16T05:44:55;99265.15;;;24.23;48.92
74466;BME280;62916;50.044;15.938;2022-10-16T05:47:26;99267.06;;;24.25;48.93
74466;BME280;62916;50.044;15.938;2022-10-16T05:49:57;99269.53;;;24.25;49.00
74466;BME280;62916;50.044;15.938;2022-10-16T05:52:29;99270.80;;;24.25;48.95
74466;BME280;62916;50.044;15.938;2022-10-16T05:54:59;99271.25;;;24.24;48.79
74466;BME280;62916;50.044;15.938;2022-10-16T05:57:30;99269.68;;;24.23;49.05
74466;BME280;62916;50.044;15.938;2022-10-16T06:00:02;99273.45;;;24.24;49.05
74466;BME280;62916;50.044;15.938;2022-10-16T06:02:33;99278.72;;;24.24;49.04
74466;BME280;62916;50.044;15.938;2022-10-16T06:05:04;99283.84;;;24.25;48.97
74466;BME280;62916;50.044;15.938;2022-10-16T06:07:36;99286.41;;;24.24;49.03
74466;BME280;62916;50.044;15.938;2022-10-16T06:10:09;99290.67;;;24.25;48.95
74466;BME280;62916;50.044;15.938;2022-10-16T06:12:39;99295.17;;;24.26;49.07
74466;BME280;62916;50.044;15.938;2022-10-16T06:15:11;99298.84;;;24.27;48.99
74466;BME280;62916;50.044;15.938;2022-10-16T06:17:41;99300.33;;;24.29;48.83
74466;BME280;62916;50.044;15.938;2022-10-16T06:20:12;99302.46;;;24.30;48.71
74466;BME280;62916;50.044;15.938;2022-10-16T06:22:43;99300.64;;;24.29;48.79
74466;BME280;62916;50.044;15.938;2022-10-16T06:25:14;99304.17;;;24.30;48.76
74466;BME280;62916;50.044;15.938;2022-10-16T06:27:45;99307.38;;;24.27;48.68
74466;BME280;62916;50.044;15.938;2022-10-16T06:30:16;99313.02;;;24.25;48.73
74466;BME280;62916;50.044;15.938;2022-10-16T06:32:47;99314.52;;;24.24;48.77
74466;BME280;62916;50.044;15.938;2022-10-16T06:35:18;99316.30;;;24.22;48.85
74466;BME280;62916;50.044;15.938;2022-10-16T06:37:48;99316.60;;;24.20;48.75
74466;BME280;62916;50.044;15.938;2022-10-16T06:40:19;99319.48;;;24.23;48.58
74466;BME280;62916;50.044;15.938;2022-10-16T06:42:50;99316.05;;;24.24;48.75
74466;BME280;62916;50.044;15.938;2022-10-16T06:45:21;99322.05;;;24.24;48.74
74466;BME280;62916;50.044;15.938;2022-10-16T06:47:52;99321.60;;;24.23;48.67
74466;BME280;62916;50.044;15.938;2022-10-16T06:50:23;99323.33;;;24.20;48.76
74466;BME280;62916;50.044;15.938;2022-10-16T06:52:54;99318.92;;;24.18;48.74
74466;BME280;62916;50.044;15.938;2022-10-16T06:55:25;99320.00;;;24.14;48.89
74466;BME280;62916;50.044;15.938;2022-10-16T06:57:56;99327.37;;;24.13;48.83
74466;BME280;62916;50.044;15.938;2022-10-16T07:00:27;99334.22;;;24.12;48.95
74466;BME280;62916;50.044;15.938;2022-10-16T07:02:58;99344.56;;;24.11;48.94
74466;BME280;62916;50.044;15.938;2022-10-16T07:05:29;99344.77;;;24.10;48.86
74466;BME280;62916;50.044;15.938;2022-10-16T07:07:59;99347.13;;;24.11;48.97
74466;BME280;62916;50.044;15.938;2022-10-16T07:10:30;99347.00;;;24.11;48.96
74466;BME280;62916;50.044;15.938;2022-10-16T07:13:01;99349.45;;;24.12;48.77
74466;BME280;62916;50.044;15.938;2022-10-16T07:15:32;99347.37;;;24.15;48.87
74466;BME280;62916;50.044;15.938;2022-10-16T07:18:03;99348.34;;;24.15;48.84
74466;BME280;62916;50.044;15.938;2022-10-16T07:20:34;99354.86;;;24.12;48.98
74466;BME280;62916;50.044;15.938;2022-10-16T07:23:06;99362.27;;;24.09;48.81
74466;BME280;62916;50.044;15.938;2022-10-16T07:25:37;99365.38;;;24.06;48.92
74466;BME280;62916;50.044;15.938;2022-10-16T07:28:08;99371.62;;;24.03;48.97
74466;BME280;62916;50.044;15.938;2022-10-16T07:30:39;99376.41;;;23.99;48.91
74466;BME280;62916;50.044;15.938;2022-10-16T07:33:10;99379.87;;;23.97;48.94
74466;BME280;62916;50.044;15.938;2022-10-16T07:35:48;99381.40;;;23.95;48.95
74466;BME280;62916;50.044;15.938;2022-10-16T07:38:20;99380.31;;;23.93;49.08
74466;BME280;62916;50.044;15.938;2022-10-16T07:40:58;99372.60;;;23.88;48.95
74466;BME280;62916;50.044;15.938;2022-10-16T07:43:30;99380.79;;;23.91;49.01
74466;BME280;62916;50.044;15.938;2022-10-16T07:46:02;99377.70;;;23.88;49.06
74466;BME280;62916;50.044;15.938;2022-10-16T07:48:35;99377.46;;;23.87;49.09
74466;BME280;62916;50.044;15.938;2022-10-16T07:51:08;99376.66;;;23.85;48.92
74466;BME280;62916;50.044;15.938;2022-10-16T07:53:39;99384.52;;;23.83;49.08
74466;BME280;62916;50.044;15.938;2022-10-16T07:56:10;99388.12;;;23.83;49.04
74466;BME280;62916;50.044;15.938;2022-10-16T07:58:42;99388.02;;;23.81;48.79
74466;BME280;62916;50.044;15.938;2022-10-16T08:01:14;99393.84;;;23.81;49.11
74466;BME280;62916;50.044;15.938;2022-10-16T08:03:47;99395.37;;;23.81;49.06
74466;BME280;62916;50.044;15.938;2022-10-16T08:06:19;99398.41;;;23.80;49.07
74466;BME280;62916;50.044;15.938;2022-10-16T08:08:57;99401.98;;;23.79;49.08
74466;BME280;62916;50.044;15.938;2022-10-16T08:11:29;99402.77;;;23.79;49.10
74466;BME280;62916;50.044;15.938;2022-10-16T08:14:00;99401.58;;;23.76;49.01
74466;BME280;62916;50.044;15.938;2022-10-16T08:16:31;99401.52;;;23.77;48.96
74466;BME280;62916;50.044;15.938;2022-10-16T08:19:01;99402.17;;;23.76;48.96
74466;BME280;62916;50.044;15.938;2022-10-16T08:21:32;99404.52;;;23.75;49.06
74466;BME280;62916;50.044;15.938;2022-10-16T08:24:04;99411.00;;;23.75;49.19
74466;BME280;62916;50.044;15.938;2022-10-16T08:26:34;99418.36;;;23.75;49.14
74466;BME280;62916;50.044;15.938;2022-10-16T08:29:05;99421.02;;;23.73;49.12
74466;BME280;62916;50.044;15.938;2022-10-16T08:31:36;99422.45;;;23.74;49.10
74466;BME280;62916;50.044;15.938;2022-10-16T08:34:07;99422.59;;;23.74;49.09
74466;BME280;62916;50.044;15.938;2022-10-16T08:36:38;99419.46;;;23.74;49.10
74466;BME280;62916;50.044;15.938;2022-10-16T08:39:09;99417.30;;;23.73;49.10
74466;BME280;62916;50.044;15.938;2022-10-16T08:42:07;99415.94;;;23.71;49.26
74466;BME280;62916;50.044;15.938;2022-10-16T08:45:11;99416.88;;;23.69;49.14
74466;BME280;62916;50.044;15.938;2022-10-16T08:47:51;99418.08;;;23.68;49.34
74466;BME280;62916;50.044;15.938;2022-10-16T08:50:24;99419.23;;;23.71;49.43
74466;BME280;62916;50.044;15.938;2022-10-16T08:52:58;99422.91;;;23.70;49.54
74466;BME280;62916;50.044;15.938;2022-10-16T08:55:41;99417.45;;;23.67;49.47
74466;BME280;62916;50.044;15.938;2022-10-16T08:58:18;99425.71;;;23.69;49.68
74466;BME280;62916;50.044;15.938;2022-10-16T09:00:54;99427.31;;;23.68;49.77
74466;BME280;62916;50.044;15.938;2022-10-16T09:06:31;99428.88;;;23.71;49.91
74466;BME280;62916;50.044;15.938;2022-10-16T09:09:21;99432.80;;;23.72;49.80
74466;BME280;62916;50.044;15.938;2022-10-16T09:12:00;99443.46;;;23.75;49.87
74466;BME280;62916;50.044;15.938;2022-10-16T09:15:00;99442.95;;;23.76;50.01
74466;BME280;62916;50.044;15.938;2022-10-16T09:17:39;99448.94;;;23.75;50.14
74466;BME280;62916;50.044;15.938;2022-10-16T09:20:24;99449.16;;;23.76;50.22
74466;BME280;62916;50.044;15.938;2022-10-16T09:23:10;99443.90;;;23.79;50.15
74466;BME280;62916;50.044;15.938;2022-10-16T09:25:45;99446.31;;;23.88;50.07
74466;BME280;62916;50.044;15.938;2022-10-16T09:28:17;99445.27;;;23.93;49.97
74466;BME280;62916;50.044;15.938;2022-10-16T09:30:49;99437.66;;;23.97;50.07
74466;BME280;62916;50.044;15.938;2022-10-16T09:33:23;99440.27;;;23.99;49.85
74466;BME280;62916;50.044;15.938;2022-10-16T09:35:56;99442.18;;;24.02;49.79
74466;BME280;62916;50.044;15.938;2022-10-16T09:38:30;99444.68;;;24.04;49.78
74466;BME280;62916;50.044;15.938;2022-10-16T09:41:13;99444.98;;;24.03;49.85
74466;BME280;62916;50.044;15.938;2022-10-16T09:43:51;99439.88;;;24.03;49.88
74466;BME280;62916;50.044;15.938;2022-10-16T09:46:31;99441.98;;;24.03;49.83
74466;BME280;62916;50.044;15.938;2022-10-16T09:49:04;99451.08;;;24.04;49.80
74466;BME280;62916;50.044;15.938;2022-10-16T09:51:36;99447.63;;;24.02;49.69
74466;BME280;62916;50.044;15.938;2022-10-16T09:54:16;99454.30;;;24.01;49.62
74466;BME280;62916;50.044;15.938;2022-10-16T09:56:48;99455.31;;;24.00;49.81
74466;BME280;62916;50.044;15.938;2022-10-16T09:59:22;99459.67;;;24.00;49.76
74466;BME280;62916;50.044;15.938;2022-10-16T10:01:56;99462.04;;;24.00;49.71
74466;BME280;62916;50.044;15.938;2022-10-16T10:04:39;99465.06;;;24.01;49.72
74466;BME280;62916;50.044;15.938;2022-10-16T10:07:18;99460.76;;;24.03;49.77
74466;BME280;62916;50.044;15.938;2022-10-16T10:09:51;99460.84;;;24.05;49.78
74466;BME280;62916;50.044;15.938;2022-10-16T10:12:23;99459.73;;;24.08;49.67
74466;BME280;62916;50.044;15.938;2022-10-16T10:14:54;99459.98;;;24.09;49.57
74466;BME280;62916;50.044;15.938;2022-10-16T10:17:27;99457.15;;;24.09;49.63
74466;BME280;62916;50.044;15.938;2022-10-16T10:20:00;99453.98;;;24.13;49.77
74466;BME280;62916;50.044;15.938;2022-10-16T10:22:41;99453.39;;;24.16;49.67
74466;BME280;62916;50.044;15.938;2022-10-16T10:25:44;99445.20;;;24.18;49.64
74466;BME280;62916;50.044;15.938;2022-10-16T10:28:28;99445.06;;;24.22;49.48
74466;BME280;62916;50.044;15.938;2022-10-16T10:31:06;99443.16;;;24.25;49.57
74466;BME280;62916;50.044;15.938;2022-10-16T10:33:44;99450.90;;;24.30;49.65
74466;BME280;62916;50.044;15.938;2022-10-16T10:36:27;99449.17;;;24.33;49.50
74466;BME280;62916;50.044;15.938;2022-10-16T10:39:01;99458.61;;;24.36;49.40
74466;BME280;62916;50.044;15.938;2022-10-16T10:44:57;99458.41;;;24.42;49.34
74466;BME280;62916;50.044;15.938;2022-10-16T10:47:42;99455.34;;;24.44;49.44
74466;BME280;62916;50.044;15.938;2022-10-16T10:50:22;99462.55;;;24.48;49.28
74466;BME280;62916;50.044;15.938;2022-10-16T10:53:04;99461.61;;;24.50;49.28
74466;BME280;62916;50.044;15.938;2022-10-16T10:55:43;99462.22;;;24.53;49.21
74466;BME280;62916;50.044;15.938;2022-10-16T11:01:35;99449.17;;;24.58;49.26
74466;BME280;62916;50.044;15.938;2022-10-16T11:04:32;99453.20;;;24.62;49.08
74466;BME280;62916;50.044;15.938;2022-10-16T11:07:07;99453.50;;;24.64;49.06
74466;BME280;62916;50.044;15.938;2022-10-16T11:09:44;99454.13;;;24.67;49.04
74466;BME280;62916;50.044;15.938;2022-10-16T11:12:20;99450.19;;;24.69;49.05
74466;BME280;62916;50.044;15.938;2022-10-16T11:14:58;99452.73;;;24.71;49.07
74466;BME280;62916;50.044;15.938;2022-10-16T11:17:35;99453.98;;;24.75;48.88
74466;BME280;62916;50.044;15.938;2022-10-16T11:20:16;99452.16;;;24.77;48.89
74466;BME280;62916;50.044;15.938;2022-10-16T11:22:50;99449.73;;;24.81;49.09
74466;BME280;62916;50.044;15.938;2022-10-16T11:25:26;99446.77;;;24.86;48.78
74466;BME280;62916;50.044;15.938;2022-10-16T11:28:01;99440.31;;;24.90;48.85
74466;BME280;62916;50.044;15.938;2022-10-16T11:30:40;99445.75;;;24.94;48.76
74466;BME280;62916;50.044;15.938;2022-10-16T11:33:24;99452.55;;;24.98;48.78
74466;BME280;62916;50.044;15.938;2022-10-16T11:36:08;99438.52;;;25.00;48.59
74466;BME280;62916;50.044;15.938;2022-10-16T11:38:45;99423.45;;;25.02;48.63
74466;BME280;62916;50.044;15.938;2022-10-16T11:41:26;99423.31;;;25.05;48.65
74466;BME280;62916;50.044;15.938;2022-10-16T11:44:12;99429.52;;;25.07;48.69
74466;BME280;62916;50.044;15.938;2022-10-16T11:46:51;99430.61;;;25.10;48.59
74466;BME280;62916;50.044;15.938;2022-10-16T11:49:36;99438.60;;;25.13;48.67
74466;BME280;62916;50.044;15.938;2022-10-16T11:52:14;99439.86;;;25.14;48.69
74466;BME280;62916;50.044;15.938;2022-10-16T11:54:51;99438.48;;;25.19;48.56
74466;BME280;62916;50.044;15.938;2022-10-16T11:57:29;99436.08;;;25.21;48.49
74466;BME280;62916;50.044;15.938;2022-10-16T12:00:04;99436.36;;;25.24;48.44
74466;BME280;62916;50.044;15.938;2022-10-16T12:02:49;99436.52;;;25.28;48.52
74466;BME280;62916;50.044;15.938;2022-10-16T12:05:28;99441.45;;;25.32;48.27
74466;BME280;62916;50.044;15.938;2022-10-16T12:08:09;99443.21;;;25.36;48.24
74466;BME280;62916;50.044;15.938;2022-10-16T12:10:42;99439.66;;;25.40;48.27
74466;BME280;62916;50.044;15.938;2022-10-16T12:13:35;99442.58;;;25.43;48.51
74466;BME280;62916;50.044;15.938;2022-10-16T12:19:09;99454.61;;;25.49;48.48
74466;BME280;62916;50.044;15.938;2022-10-16T12:21:42;99448.98;;;25.52;48.56
74466;BME280;62916;50.044;15.938;2022-10-16T12:24:31;99457.45;;;25.54;48.24
74466;BME280;62916;50.044;15.938;2022-10-16T12:27:03;99455.81;;;25.57;48.35
74466;BME280;62916;50.044;15.938;2022-10-16T12:29:37;99454.40;;;25.58;48.06
74466;BME280;62916;50.044;15.938;2022-10-16T12:32:27;99453.64;;;25.59;48.12
74466;BME280;62916;50.044;15.938;2022-10-16T12:35:22;99458.30;;;25.56;48.17
74466;BME280;62916;50.044;15.938;2022-10-16T12:38:03;99461.92;;;25.57;48.22
74466;BME280;62916;50.044;15.938;2022-10-16T12:40:38;99465.20;;;25.58;48.18
74466;BME280;62916;50.044;15.938;2022-10-16T12:43:27;99466.91;;;25.58;48.11
74466;BME280;62916;50.044;15.938;2022-10-16T12:46:05;99470.07;;;25.58;48.21
74466;BME280;62916;50.044;15.938;2022-10-16T12:48:50;99469.08;;;25.59;48.19
74466;BME280;62916;50.044;15.938;2022-10-16T12:51:38;99469.24;;;25.59;48.12
74466;BME280;62916;50.044;15.938;2022-10-16T12:54:15;99463.53;;;25.58;48.22
74466;BME280;62916;50.044;15.938;2022-10-16T12:56:55;99454.73;;;25.58;48.23
74466;BME280;62916;50.044;15.938;2022-10-16T12:59:37;99453.90;;;25.58;48.31
74466;BME280;62916;50.044;15.938;2022-10-16T13:05:35;99460.84;;;25.60;48.09
74466;BME280;62916;50.044;15.938;2022-10-16T13:08:22;99467.25;;;25.61;48.12
74466;BME280;62916;50.044;15.938;2022-10-16T13:11:03;99470.15;;;25.63;48.12
74466;BME280;62916;50.044;15.938;2022-10-16T13:16:37;99472.77;;;25.66;48.09
74466;BME280;62916;50.044;15.938;2022-10-16T13:19:12;99473.23;;;25.68;47.93
74466;BME280;62916;50.044;15.938;2022-10-16T13:21:50;99475.75;;;25.67;47.87
74466;BME280;62916;50.044;15.938;2022-10-16T13:24:35;99478.88;;;25.71;47.87
74466;BME280;62916;50.044;15.938;2022-10-16T13:27:18;99477.06;;;25.72;48.08
74466;BME280;62916;50.044;15.938;2022-10-16T13:29:59;99481.90;;;25.76;47.96
74466;BME280;62916;50.044;15.938;2022-10-16T13:32:32;99484.38;;;25.80;47.84
74466;BME280;62916;50.044;15.938;2022-10-16T13:35:03;99483.73;;;25.85;47.91
74466;BME280;62916;50.044;15.938;2022-10-16T13:37:34;99484.77;;;25.87;47.81
74466;BME280;62916;50.044;15.938;2022-10-16T13:40:11;99482.16;;;25.88;47.70
74466;BME280;62916;50.044;15.938;2022-10-16T13:42:48;99482.48;;;25.90;47.89
74466;BME280;62916;50.044;15.938;2022-10-16T13:45:24;99487.81;;;25.92;47.77
74466;BME280;62916;50.044;15.938;2022-10-16T13:48:05;99485.45;;;25.91;47.94